West Salem, Wisconsin
Current Conditions -  °F | °C
As of 6:53 PM on Monday 20 Oct 2014 (Local Time) from KLSE Reporting Station
Scattered Clouds Scattered Clouds  
Wind Chill: 56°   Ceiling: Unl
Heat Index: 56°   Visibility: 10mi
Dew Point: 40°   Wind: 8mph
Humidity: 55%   Direction: 360°N
Pressure: 30"   Gusts: NA
Location:  43.9°N, 91.08°W
Report Text: KLSE 202353Z 36007KT 10SM SCT048 13/04 A3000 RMK AO2 SLP161 T01330044 10194 20128 53022
Loading
Personal Weather Stations






























Interactive Weather Map New forecast layout! Learn more

10-Day Weather Forecast

Advertisements
Track Severe Weather on mobile